<?xml version="1.0" encoding="UTF-8" standalone="no" ?>
<gpx xmlns="http://www.topografix.com/GPX/1/1" xmlns:xsi="http://www.w3.org/2001/XMLSchema-instance" xsi:schemaLocation="http://www.topografix.com/GPX/1/1 http://www.topografix.com/GPX/1/1/gpx.xsd" version="1.1" creator="VisuGPX - https://www.visugpx.com">
  <metadata>
    <name>Turquie_100points</name>
  </metadata>
  <trk>
    <name><![CDATA[Tour d'Europe: étape 532]]></name>
    <extensions>
      <line xmlns="http://www.topografix.com/GPX/gpx_style/0/2">
        <color>880000</color>
        <width>4</width>
      </line>
    </extensions>
    <trkseg>
      <trkpt lat="39.29687" lon="41.01148">
        <ele>1858.708806</ele>
        <time>2021-12-12T06:28:37.638Z</time>
      </trkpt>
      <trkpt lat="39.2962" lon="41.01078">
        <ele>1857.887458</ele>
        <time>2021-12-12T06:34:14.575Z</time>
      </trkpt>
      <trkpt lat="39.29478" lon="41.0102">
        <ele>1855.522462</ele>
        <time>2021-12-12T06:36:10.608Z</time>
      </trkpt>
      <trkpt lat="39.29285" lon="41.00863">
        <ele>1856.982078</ele>
        <time>2021-12-12T06:38:00.594Z</time>
      </trkpt>
      <trkpt lat="39.29107" lon="41.00658">
        <ele>1868.138473</ele>
        <time>2021-12-12T06:39:30.579Z</time>
      </trkpt>
      <trkpt lat="39.28934" lon="41.00454">
        <ele>1866.568736</ele>
        <time>2021-12-12T06:40:56.594Z</time>
      </trkpt>
      <trkpt lat="39.28758" lon="41.00245">
        <ele>1866.353493</ele>
        <time>2021-12-12T06:42:23.596Z</time>
      </trkpt>
      <trkpt lat="39.28571" lon="41.00026">
        <ele>1865.548299</ele>
        <time>2021-12-12T06:43:29.592Z</time>
      </trkpt>
      <trkpt lat="39.28335" lon="40.99853">
        <ele>1857.661894</ele>
        <time>2021-12-12T06:44:13.655Z</time>
      </trkpt>
      <trkpt lat="39.28101" lon="40.99726">
        <ele>1846.882677</ele>
        <time>2021-12-12T06:44:36.602Z</time>
      </trkpt>
      <trkpt lat="39.27858" lon="40.996">
        <ele>1842.578125</ele>
        <time>2021-12-12T06:45:13.607Z</time>
      </trkpt>
      <trkpt lat="39.27645" lon="40.99486">
        <ele>1840.464766</ele>
        <time>2021-12-12T06:45:57.602Z</time>
      </trkpt>
      <trkpt lat="39.2738" lon="40.99345">
        <ele>1830.031376</ele>
        <time>2021-12-12T06:46:30.605Z</time>
      </trkpt>
      <trkpt lat="39.27172" lon="40.99234">
        <ele>1820.639588</ele>
        <time>2021-12-12T06:46:52.595Z</time>
      </trkpt>
      <trkpt lat="39.26909" lon="40.99095">
        <ele>1814.475552</ele>
        <time>2021-12-12T06:47:25.622Z</time>
      </trkpt>
      <trkpt lat="39.26619" lon="40.9895">
        <ele>1811.226985</ele>
        <time>2021-12-12T06:48:09.610Z</time>
      </trkpt>
      <trkpt lat="39.26365" lon="40.98879">
        <ele>1814.488154</ele>
        <time>2021-12-12T06:49:10.641Z</time>
      </trkpt>
      <trkpt lat="39.26113" lon="40.98806">
        <ele>1816.612477</ele>
        <time>2021-12-12T06:50:16.611Z</time>
      </trkpt>
      <trkpt lat="39.25858" lon="40.98707">
        <ele>1816.075575</ele>
        <time>2021-12-12T06:51:22.620Z</time>
      </trkpt>
      <trkpt lat="39.25638" lon="40.98549">
        <ele>1816.88089</ele>
        <time>2021-12-12T06:52:16.608Z</time>
      </trkpt>
      <trkpt lat="39.25422" lon="40.98386">
        <ele>1813.135484</ele>
        <time>2021-12-12T06:53:00.606Z</time>
      </trkpt>
      <trkpt lat="39.25225" lon="40.98231">
        <ele>1810.047534</ele>
        <time>2021-12-12T06:53:44.588Z</time>
      </trkpt>
      <trkpt lat="39.2502" lon="40.98074">
        <ele>1809.868855</ele>
        <time>2021-12-12T06:54:30.637Z</time>
      </trkpt>
      <trkpt lat="39.24788" lon="40.9795">
        <ele>1803.813808</ele>
        <time>2021-12-12T06:55:07.589Z</time>
      </trkpt>
      <trkpt lat="39.24567" lon="40.97951">
        <ele>1797.444837</ele>
        <time>2021-12-12T06:55:29.602Z</time>
      </trkpt>
      <trkpt lat="39.24243" lon="40.97984">
        <ele>1791.675159</ele>
        <time>2021-12-12T06:56:08.607Z</time>
      </trkpt>
      <trkpt lat="39.23947" lon="40.98034">
        <ele>1787.015121</ele>
        <time>2021-12-12T06:56:52.608Z</time>
      </trkpt>
      <trkpt lat="39.23704" lon="40.98101">
        <ele>1790.934944</ele>
        <time>2021-12-12T06:57:48.632Z</time>
      </trkpt>
      <trkpt lat="39.2349" lon="40.98157">
        <ele>1793.856926</ele>
        <time>2021-12-12T06:58:59.603Z</time>
      </trkpt>
      <trkpt lat="39.23259" lon="40.98081">
        <ele>1792.538221</ele>
        <time>2021-12-12T07:00:01.599Z</time>
      </trkpt>
      <trkpt lat="39.23023" lon="40.97923">
        <ele>1785.89659</ele>
        <time>2021-12-12T07:00:35.596Z</time>
      </trkpt>
      <trkpt lat="39.22801" lon="40.97796">
        <ele>1777.831208</ele>
        <time>2021-12-12T07:01:00.590Z</time>
      </trkpt>
      <trkpt lat="39.22597" lon="40.97615">
        <ele>1790.610161</ele>
        <time>2021-12-12T07:02:36.596Z</time>
      </trkpt>
      <trkpt lat="39.22443" lon="40.97424">
        <ele>1799.88762</ele>
        <time>2021-12-12T07:04:56.608Z</time>
      </trkpt>
      <trkpt lat="39.2228" lon="40.97222">
        <ele>1801.416125</ele>
        <time>2021-12-12T07:06:22.627Z</time>
      </trkpt>
      <trkpt lat="39.22098" lon="40.96997">
        <ele>1802.43051</ele>
        <time>2021-12-12T07:07:31.613Z</time>
      </trkpt>
      <trkpt lat="39.21905" lon="40.96749">
        <ele>1797.453774</ele>
        <time>2021-12-12T07:08:22.604Z</time>
      </trkpt>
      <trkpt lat="39.21703" lon="40.96525">
        <ele>1785.939006</ele>
        <time>2021-12-12T07:08:51.609Z</time>
      </trkpt>
      <trkpt lat="39.21488" lon="40.9635">
        <ele>1771.070369</ele>
        <time>2021-12-12T07:09:13.610Z</time>
      </trkpt>
      <trkpt lat="39.21266" lon="40.96172">
        <ele>1762.428033</ele>
        <time>2021-12-12T07:09:40.622Z</time>
      </trkpt>
      <trkpt lat="39.20976" lon="40.95887">
        <ele>1756.424104</ele>
        <time>2021-12-12T07:10:24.591Z</time>
      </trkpt>
      <trkpt lat="39.2082" lon="40.956">
        <ele>1760.957705</ele>
        <time>2021-12-12T07:11:17.605Z</time>
      </trkpt>
      <trkpt lat="39.20743" lon="40.95307">
        <ele>1772.767749</ele>
        <time>2021-12-12T07:12:41.602Z</time>
      </trkpt>
      <trkpt lat="39.2059" lon="40.951">
        <ele>1779.388249</ele>
        <time>2021-12-12T07:14:26.614Z</time>
      </trkpt>
      <trkpt lat="39.20419" lon="40.94926">
        <ele>1787.324157</ele>
        <time>2021-12-12T07:16:02.604Z</time>
      </trkpt>
      <trkpt lat="39.20248" lon="40.94745">
        <ele>1802.555855</ele>
        <time>2021-12-12T07:18:18.615Z</time>
      </trkpt>
      <trkpt lat="39.20097" lon="40.94542">
        <ele>1815.661928</ele>
        <time>2021-12-12T07:20:34.612Z</time>
      </trkpt>
      <trkpt lat="39.19954" lon="40.94331">
        <ele>1823.81259</ele>
        <time>2021-12-12T07:22:25.635Z</time>
      </trkpt>
      <trkpt lat="39.19791" lon="40.94103">
        <ele>1829.093014</ele>
        <time>2021-12-12T07:23:45.605Z</time>
      </trkpt>
      <trkpt lat="39.19617" lon="40.93855">
        <ele>1824.893337</ele>
        <time>2021-12-12T07:24:51.625Z</time>
      </trkpt>
      <trkpt lat="39.19437" lon="40.93625">
        <ele>1823.313813</ele>
        <time>2021-12-12T07:25:57.631Z</time>
      </trkpt>
      <trkpt lat="39.19267" lon="40.9343">
        <ele>1835.000495</ele>
        <time>2021-12-12T07:27:28.623Z</time>
      </trkpt>
      <trkpt lat="39.19086" lon="40.93245">
        <ele>1839.551836</ele>
        <time>2021-12-12T07:29:23.614Z</time>
      </trkpt>
      <trkpt lat="39.18917" lon="40.93059">
        <ele>1848.983491</ele>
        <time>2021-12-12T07:31:18.646Z</time>
      </trkpt>
      <trkpt lat="39.18743" lon="40.9287">
        <ele>1855.38018</ele>
        <time>2021-12-12T07:32:37.626Z</time>
      </trkpt>
      <trkpt lat="39.18559" lon="40.92606">
        <ele>1843.618903</ele>
        <time>2021-12-12T07:33:10.616Z</time>
      </trkpt>
      <trkpt lat="39.18397" lon="40.92366">
        <ele>1826.344291</ele>
        <time>2021-12-12T07:33:32.621Z</time>
      </trkpt>
      <trkpt lat="39.18244" lon="40.9208">
        <ele>1811.362183</ele>
        <time>2021-12-12T07:33:54.612Z</time>
      </trkpt>
      <trkpt lat="39.18111" lon="40.91798">
        <ele>1803.32841</ele>
        <time>2021-12-12T07:34:17.615Z</time>
      </trkpt>
      <trkpt lat="39.17961" lon="40.91594">
        <ele>1798.292198</ele>
        <time>2021-12-12T07:34:39.612Z</time>
      </trkpt>
      <trkpt lat="39.17769" lon="40.91396">
        <ele>1805.133037</ele>
        <time>2021-12-12T07:35:44.610Z</time>
      </trkpt>
      <trkpt lat="39.17554" lon="40.91277">
        <ele>1813.902807</ele>
        <time>2021-12-12T07:37:34.609Z</time>
      </trkpt>
      <trkpt lat="39.17307" lon="40.91149">
        <ele>1810.452614</ele>
        <time>2021-12-12T07:38:26.602Z</time>
      </trkpt>
      <trkpt lat="39.17056" lon="40.91003">
        <ele>1804.436569</ele>
        <time>2021-12-12T07:38:55.607Z</time>
      </trkpt>
      <trkpt lat="39.16791" lon="40.90875">
        <ele>1790.212452</ele>
        <time>2021-12-12T07:39:21.612Z</time>
      </trkpt>
      <trkpt lat="39.16484" lon="40.90758">
        <ele>1782.619215</ele>
        <time>2021-12-12T07:40:00.651Z</time>
      </trkpt>
      <trkpt lat="39.16303" lon="40.9055">
        <ele>1784.841964</ele>
        <time>2021-12-12T07:40:26.613Z</time>
      </trkpt>
      <trkpt lat="39.16146" lon="40.90271">
        <ele>1792.36704</ele>
        <time>2021-12-12T07:40:55.627Z</time>
      </trkpt>
      <trkpt lat="39.15922" lon="40.90098">
        <ele>1778.512576</ele>
        <time>2021-12-12T07:41:24.607Z</time>
      </trkpt>
      <trkpt lat="39.15725" lon="40.89941">
        <ele>1773.697725</ele>
        <time>2021-12-12T07:42:24.595Z</time>
      </trkpt>
      <trkpt lat="39.15583" lon="40.89705">
        <ele>1779.240299</ele>
        <time>2021-12-12T07:43:50.606Z</time>
      </trkpt>
      <trkpt lat="39.15511" lon="40.89432">
        <ele>1795.791447</ele>
        <time>2021-12-12T07:46:08.643Z</time>
      </trkpt>
      <trkpt lat="39.15489" lon="40.89155">
        <ele>1805.782428</ele>
        <time>2021-12-12T07:48:06.602Z</time>
      </trkpt>
      <trkpt lat="39.15384" lon="40.88895">
        <ele>1812.769226</ele>
        <time>2021-12-12T07:49:38.628Z</time>
      </trkpt>
      <trkpt lat="39.15302" lon="40.88619">
        <ele>1816.472972</ele>
        <time>2021-12-12T07:51:39.623Z</time>
      </trkpt>
      <trkpt lat="39.15269" lon="40.88252">
        <ele>1804.682714</ele>
        <time>2021-12-12T07:52:20.666Z</time>
      </trkpt>
      <trkpt lat="39.15227" lon="40.87964">
        <ele>1792.138592</ele>
        <time>2021-12-12T07:52:42.609Z</time>
      </trkpt>
      <trkpt lat="39.15098" lon="40.87732">
        <ele>1773.345074</ele>
        <time>2021-12-12T07:53:04.609Z</time>
      </trkpt>
      <trkpt lat="39.14857" lon="40.87508">
        <ele>1751.928338</ele>
        <time>2021-12-12T07:53:27.629Z</time>
      </trkpt>
      <trkpt lat="39.14641" lon="40.87313">
        <ele>1737.658359</ele>
        <time>2021-12-12T07:53:49.625Z</time>
      </trkpt>
      <trkpt lat="39.14436" lon="40.87128">
        <ele>1722.108047</ele>
        <time>2021-12-12T07:54:21.621Z</time>
      </trkpt>
      <trkpt lat="39.14204" lon="40.86916">
        <ele>1708.195186</ele>
        <time>2021-12-12T07:54:44.624Z</time>
      </trkpt>
      <trkpt lat="39.13977" lon="40.86708">
        <ele>1701.487766</ele>
        <time>2021-12-12T07:55:06.618Z</time>
      </trkpt>
      <trkpt lat="39.13775" lon="40.86526">
        <ele>1700.189987</ele>
        <time>2021-12-12T07:55:28.623Z</time>
      </trkpt>
      <trkpt lat="39.1365" lon="40.86281">
        <ele>1702.534333</ele>
        <time>2021-12-12T07:55:51.613Z</time>
      </trkpt>
      <trkpt lat="39.13541" lon="40.85989">
        <ele>1703.763211</ele>
        <time>2021-12-12T07:56:13.626Z</time>
      </trkpt>
      <trkpt lat="39.13396" lon="40.85707">
        <ele>1692.160282</ele>
        <time>2021-12-12T07:56:35.614Z</time>
      </trkpt>
      <trkpt lat="39.13163" lon="40.85569">
        <ele>1689.009003</ele>
        <time>2021-12-12T07:57:51.650Z</time>
      </trkpt>
      <trkpt lat="39.12947" lon="40.85601">
        <ele>1706.287983</ele>
        <time>2021-12-12T08:00:25.636Z</time>
      </trkpt>
      <trkpt lat="39.12737" lon="40.85539">
        <ele>1703.133724</ele>
        <time>2021-12-12T08:02:25.627Z</time>
      </trkpt>
      <trkpt lat="39.12468" lon="40.85386">
        <ele>1695.690322</ele>
        <time>2021-12-12T08:03:14.615Z</time>
      </trkpt>
      <trkpt lat="39.12251" lon="40.85232">
        <ele>1675.784915</ele>
        <time>2021-12-12T08:03:40.616Z</time>
      </trkpt>
      <trkpt lat="39.11995" lon="40.85048">
        <ele>1647.656626</ele>
        <time>2021-12-12T08:04:13.619Z</time>
      </trkpt>
      <trkpt lat="39.11792" lon="40.84917">
        <ele>1628.97008</ele>
        <time>2021-12-12T08:04:36.598Z</time>
      </trkpt>
      <trkpt lat="39.11566" lon="40.84698">
        <ele>1614.671977</ele>
        <time>2021-12-12T08:05:08.621Z</time>
      </trkpt>
      <trkpt lat="39.11446" lon="40.84419">
        <ele>1636.514881</ele>
        <time>2021-12-12T08:06:20.622Z</time>
      </trkpt>
      <trkpt lat="39.11318" lon="40.84197">
        <ele>1655.100932</ele>
        <time>2021-12-12T08:08:12.606Z</time>
      </trkpt>
      <trkpt lat="39.11208" lon="40.83939">
        <ele>1643.007396</ele>
        <time>2021-12-12T08:10:26.658Z</time>
      </trkpt>
      <trkpt lat="39.11079" lon="40.83706">
        <ele>1648.992839</ele>
        <time>2021-12-12T08:12:16.621Z</time>
      </trkpt>
      <trkpt lat="39.10892" lon="40.83504">
        <ele>1648.277108</ele>
        <time>2021-12-12T08:13:14.618Z</time>
      </trkpt>
      <trkpt lat="39.10668" lon="40.83307">
        <ele>1642.761449</ele>
        <time>2021-12-12T08:13:58.635Z</time>
      </trkpt>
      <trkpt lat="39.1044" lon="40.82996">
        <ele>1624.711918</ele>
        <time>2021-12-12T08:14:44.627Z</time>
      </trkpt>
      <trkpt lat="39.10194" lon="40.82655">
        <ele>1615.082309</ele>
        <time>2021-12-12T08:15:28.622Z</time>
      </trkpt>
      <trkpt lat="39.09942" lon="40.82468">
        <ele>1609.157056</ele>
        <time>2021-12-12T08:16:11.638Z</time>
      </trkpt>
      <trkpt lat="39.09665" lon="40.82414">
        <ele>1597.84047</ele>
        <time>2021-12-12T08:16:57.647Z</time>
      </trkpt>
      <trkpt lat="39.09375" lon="40.82293">
        <ele>1561.453608</ele>
        <time>2021-12-12T08:17:41.643Z</time>
      </trkpt>
      <trkpt lat="39.09121" lon="40.82073">
        <ele>1534.49096</ele>
        <time>2021-12-12T08:18:19.614Z</time>
      </trkpt>
      <trkpt lat="39.08917" lon="40.81865">
        <ele>1534.532414</ele>
        <time>2021-12-12T08:19:06.629Z</time>
      </trkpt>
      <trkpt lat="39.08714" lon="40.81755">
        <ele>1550.512498</ele>
        <time>2021-12-12T08:21:14.620Z</time>
      </trkpt>
      <trkpt lat="39.08524" lon="40.81644">
        <ele>1564.295935</ele>
        <time>2021-12-12T08:23:35.640Z</time>
      </trkpt>
      <trkpt lat="39.0831" lon="40.81584">
        <ele>1573.361663</ele>
        <time>2021-12-12T08:25:55.613Z</time>
      </trkpt>
      <trkpt lat="39.08129" lon="40.81698">
        <ele>1581.15466</ele>
        <time>2021-12-12T08:28:09.619Z</time>
      </trkpt>
      <trkpt lat="39.08078" lon="40.81446">
        <ele>1594.370388</ele>
        <time>2021-12-12T08:30:26.643Z</time>
      </trkpt>
      <trkpt lat="39.07961" lon="40.81234">
        <ele>1612.85209</ele>
        <time>2021-12-12T08:33:09.636Z</time>
      </trkpt>
      <trkpt lat="39.07744" lon="40.81287">
        <ele>1624.520038</ele>
        <time>2021-12-12T08:35:01.645Z</time>
      </trkpt>
      <trkpt lat="39.07491" lon="40.81441">
        <ele>1609.050797</ele>
        <time>2021-12-12T08:35:48.630Z</time>
      </trkpt>
      <trkpt lat="39.07166" lon="40.81324">
        <ele>1575.977324</ele>
        <time>2021-12-12T08:36:29.635Z</time>
      </trkpt>
      <trkpt lat="39.06914" lon="40.81164">
        <ele>1553.291366</ele>
        <time>2021-12-12T08:37:01.635Z</time>
      </trkpt>
      <trkpt lat="39.06683" lon="40.80936">
        <ele>1531.294835</ele>
        <time>2021-12-12T08:37:45.632Z</time>
      </trkpt>
      <trkpt lat="39.06511" lon="40.80607">
        <ele>1504.18204</ele>
        <time>2021-12-12T08:38:28.635Z</time>
      </trkpt>
      <trkpt lat="39.06381" lon="40.80362">
        <ele>1489.649686</ele>
        <time>2021-12-12T08:38:51.629Z</time>
      </trkpt>
      <trkpt lat="39.06151" lon="40.80107">
        <ele>1479.736666</ele>
        <time>2021-12-12T08:39:33.677Z</time>
      </trkpt>
      <trkpt lat="39.05908" lon="40.79824">
        <ele>1462.908117</ele>
        <time>2021-12-12T08:40:14.632Z</time>
      </trkpt>
      <trkpt lat="39.05816" lon="40.79441">
        <ele>1443.889128</ele>
        <time>2021-12-12T08:41:00.633Z</time>
      </trkpt>
      <trkpt lat="39.05806" lon="40.79121">
        <ele>1418.47349</ele>
        <time>2021-12-12T08:41:52.626Z</time>
      </trkpt>
      <trkpt lat="39.05795" lon="40.78901">
        <ele>1418.182842</ele>
        <time>2021-12-12T09:23:53.978Z</time>
      </trkpt>
      <trkpt lat="39.05746" lon="40.78611">
        <ele>1418.662879</ele>
        <time>2021-12-12T09:25:01.999Z</time>
      </trkpt>
      <trkpt lat="39.05667" lon="40.7826">
        <ele>1404.623099</ele>
        <time>2021-12-12T09:25:42.006Z</time>
      </trkpt>
      <trkpt lat="39.05542" lon="40.78001">
        <ele>1394.30156</ele>
        <time>2021-12-12T09:26:04.996Z</time>
      </trkpt>
      <trkpt lat="39.05376" lon="40.77792">
        <ele>1397.886225</ele>
        <time>2021-12-12T09:27:19.002Z</time>
      </trkpt>
      <trkpt lat="39.05231" lon="40.77556">
        <ele>1404.803954</ele>
        <time>2021-12-12T09:28:48.987Z</time>
      </trkpt>
      <trkpt lat="39.05092" lon="40.77324">
        <ele>1408.793757</ele>
        <time>2021-12-12T09:29:59.997Z</time>
      </trkpt>
      <trkpt lat="39.04936" lon="40.77128">
        <ele>1411.642207</ele>
        <time>2021-12-12T09:31:38.000Z</time>
      </trkpt>
      <trkpt lat="39.0469" lon="40.76917">
        <ele>1399.59136</ele>
        <time>2021-12-12T09:32:25.003Z</time>
      </trkpt>
      <trkpt lat="39.046" lon="40.76601">
        <ele>1375.966939</ele>
        <time>2021-12-12T09:32:55.002Z</time>
      </trkpt>
      <trkpt lat="39.04468" lon="40.7632">
        <ele>1352.595858</ele>
        <time>2021-12-12T09:33:23.985Z</time>
      </trkpt>
      <trkpt lat="39.04413" lon="40.75974">
        <ele>1336.24318</ele>
        <time>2021-12-12T09:33:50.022Z</time>
      </trkpt>
      <trkpt lat="39.04251" lon="40.75737">
        <ele>1328.117368</ele>
        <time>2021-12-12T09:34:20.013Z</time>
      </trkpt>
      <trkpt lat="39.04055" lon="40.7556">
        <ele>1338.117732</ele>
        <time>2021-12-12T09:35:23.994Z</time>
      </trkpt>
      <trkpt lat="39.03888" lon="40.7526">
        <ele>1335.897469</ele>
        <time>2021-12-12T09:36:08.006Z</time>
      </trkpt>
      <trkpt lat="39.03779" lon="40.74858">
        <ele>1322.6535</ele>
        <time>2021-12-12T09:36:54.000Z</time>
      </trkpt>
      <trkpt lat="39.03516" lon="40.74687">
        <ele>1298.992331</ele>
        <time>2021-12-12T09:37:38.023Z</time>
      </trkpt>
      <trkpt lat="39.03272" lon="40.74436">
        <ele>1274.635686</ele>
        <time>2021-12-12T09:38:17.014Z</time>
      </trkpt>
      <trkpt lat="39.03183" lon="40.74141">
        <ele>1264.142781</ele>
        <time>2021-12-12T09:38:44.005Z</time>
      </trkpt>
      <trkpt lat="39.03041" lon="40.73715">
        <ele>1255.520385</ele>
        <time>2021-12-12T09:39:28.045Z</time>
      </trkpt>
      <trkpt lat="39.02865" lon="40.73397">
        <ele>1247.561703</ele>
        <time>2021-12-12T09:40:04.012Z</time>
      </trkpt>
      <trkpt lat="39.02562" lon="40.73168">
        <ele>1245.974706</ele>
        <time>2021-12-12T09:40:49.999Z</time>
      </trkpt>
      <trkpt lat="39.02346" lon="40.72833">
        <ele>1241.349134</ele>
        <time>2021-12-12T09:41:33.991Z</time>
      </trkpt>
      <trkpt lat="39.02233" lon="40.7241">
        <ele>1237.75684</ele>
        <time>2021-12-12T09:42:18.045Z</time>
      </trkpt>
      <trkpt lat="39.02042" lon="40.72127">
        <ele>1223.937688</ele>
        <time>2021-12-12T09:42:53.008Z</time>
      </trkpt>
      <trkpt lat="39.01949" lon="40.71727">
        <ele>1229.2303</ele>
        <time>2021-12-12T09:43:30.011Z</time>
      </trkpt>
      <trkpt lat="39.0182" lon="40.71346">
        <ele>1211.135526</ele>
        <time>2021-12-12T09:44:14.050Z</time>
      </trkpt>
      <trkpt lat="39.01653" lon="40.70956">
        <ele>1203.929209</ele>
        <time>2021-12-12T09:44:58.006Z</time>
      </trkpt>
      <trkpt lat="39.0145" lon="40.70587">
        <ele>1197.140784</ele>
        <time>2021-12-12T09:45:44.013Z</time>
      </trkpt>
      <trkpt lat="39.01221" lon="40.70297">
        <ele>1198.92861</ele>
        <time>2021-12-12T09:46:27.988Z</time>
      </trkpt>
      <trkpt lat="39.01012" lon="40.70063">
        <ele>1199.780048</ele>
        <time>2021-12-12T09:47:12.000Z</time>
      </trkpt>
      <trkpt lat="39.00796" lon="40.69927">
        <ele>1201.566214</ele>
        <time>2021-12-12T09:47:58.016Z</time>
      </trkpt>
      <trkpt lat="39.00577" lon="40.69837">
        <ele>1205.167795</ele>
        <time>2021-12-12T09:49:13.056Z</time>
      </trkpt>
      <trkpt lat="39.00422" lon="40.69637">
        <ele>1213.236027</ele>
        <time>2021-12-12T09:51:12.042Z</time>
      </trkpt>
      <trkpt lat="39.00246" lon="40.69447">
        <ele>1228.651802</ele>
        <time>2021-12-12T09:52:44.010Z</time>
      </trkpt>
      <trkpt lat="39.00077" lon="40.69272">
        <ele>1239.184664</ele>
        <time>2021-12-12T09:54:58.987Z</time>
      </trkpt>
      <trkpt lat="38.99894" lon="40.69099">
        <ele>1245.481578</ele>
        <time>2021-12-12T09:56:40.015Z</time>
      </trkpt>
      <trkpt lat="38.99655" lon="40.68922">
        <ele>1238.957022</ele>
        <time>2021-12-12T09:57:16.039Z</time>
      </trkpt>
      <trkpt lat="38.99434" lon="40.68733">
        <ele>1219.66943</ele>
        <time>2021-12-12T09:57:39.043Z</time>
      </trkpt>
      <trkpt lat="38.99296" lon="40.68489">
        <ele>1205.420411</ele>
        <time>2021-12-12T09:58:01.051Z</time>
      </trkpt>
      <trkpt lat="38.9914" lon="40.68282">
        <ele>1195.513438</ele>
        <time>2021-12-12T09:58:24.050Z</time>
      </trkpt>
      <trkpt lat="38.98992" lon="40.68014">
        <ele>1187.214292</ele>
        <time>2021-12-12T09:58:47.047Z</time>
      </trkpt>
      <trkpt lat="38.9879" lon="40.67676">
        <ele>1185.323692</ele>
        <time>2021-12-12T09:59:30.002Z</time>
      </trkpt>
      <trkpt lat="38.98539" lon="40.67615">
        <ele>1189.51973</ele>
        <time>2021-12-12T10:00:16.008Z</time>
      </trkpt>
      <trkpt lat="38.98316" lon="40.67711">
        <ele>1191.584786</ele>
        <time>2021-12-12T10:01:05.005Z</time>
      </trkpt>
      <trkpt lat="38.98116" lon="40.67601">
        <ele>1189.791668</ele>
        <time>2021-12-12T10:01:56.006Z</time>
      </trkpt>
      <trkpt lat="38.97906" lon="40.67454">
        <ele>1200.384249</ele>
        <time>2021-12-12T10:13:47.029Z</time>
      </trkpt>
      <trkpt lat="38.97703" lon="40.67314">
        <ele>1211.889218</ele>
        <time>2021-12-12T10:15:52.014Z</time>
      </trkpt>
      <trkpt lat="38.97562" lon="40.671">
        <ele>1221.04655</ele>
        <time>2021-12-12T10:17:54.010Z</time>
      </trkpt>
      <trkpt lat="38.97388" lon="40.66945">
        <ele>1229.920561</ele>
        <time>2021-12-12T10:19:53.016Z</time>
      </trkpt>
      <trkpt lat="38.97195" lon="40.66795">
        <ele>1235.454132</ele>
        <time>2021-12-12T10:21:35.007Z</time>
      </trkpt>
      <trkpt lat="38.96999" lon="40.666">
        <ele>1238.980537</ele>
        <time>2021-12-12T10:25:13.016Z</time>
      </trkpt>
      <trkpt lat="38.96799" lon="40.66416">
        <ele>1241.421127</ele>
        <time>2021-12-12T10:26:19.020Z</time>
      </trkpt>
      <trkpt lat="38.96606" lon="40.66239">
        <ele>1242.218254</ele>
        <time>2021-12-12T10:27:23.027Z</time>
      </trkpt>
      <trkpt lat="38.96387" lon="40.6603">
        <ele>1240.746404</ele>
        <time>2021-12-12T10:28:10.057Z</time>
      </trkpt>
      <trkpt lat="38.96206" lon="40.65868">
        <ele>1238.891285</ele>
        <time>2021-12-12T10:28:54.027Z</time>
      </trkpt>
      <trkpt lat="38.95945" lon="40.65779">
        <ele>1230.964707</ele>
        <time>2021-12-12T10:29:38.017Z</time>
      </trkpt>
      <trkpt lat="38.95622" lon="40.65588">
        <ele>1213.920628</ele>
        <time>2021-12-12T10:30:20.014Z</time>
      </trkpt>
      <trkpt lat="38.95512" lon="40.65363">
        <ele>1201.183386</ele>
        <time>2021-12-12T10:30:41.998Z</time>
      </trkpt>
      <trkpt lat="38.95383" lon="40.65131">
        <ele>1184.937191</ele>
        <time>2021-12-12T10:31:04.004Z</time>
      </trkpt>
      <trkpt lat="38.95184" lon="40.6493">
        <ele>1168.02609</ele>
        <time>2021-12-12T10:31:27.016Z</time>
      </trkpt>
      <trkpt lat="38.94977" lon="40.64727">
        <ele>1157.509978</ele>
        <time>2021-12-12T10:31:49.010Z</time>
      </trkpt>
      <trkpt lat="38.94766" lon="40.64519">
        <ele>1155.677778</ele>
        <time>2021-12-12T10:32:24.030Z</time>
      </trkpt>
      <trkpt lat="38.94588" lon="40.64355">
        <ele>1159.961015</ele>
        <time>2021-12-12T10:33:10.021Z</time>
      </trkpt>
      <trkpt lat="38.94386" lon="40.64198">
        <ele>1160.60394</ele>
        <time>2021-12-12T10:34:01.024Z</time>
      </trkpt>
      <trkpt lat="38.94169" lon="40.64049">
        <ele>1164.178267</ele>
        <time>2021-12-12T10:35:07.021Z</time>
      </trkpt>
      <trkpt lat="38.93965" lon="40.63888">
        <ele>1167.428478</ele>
        <time>2021-12-12T10:36:13.003Z</time>
      </trkpt>
      <trkpt lat="38.93817" lon="40.63635">
        <ele>1167.436326</ele>
        <time>2021-12-12T10:37:03.019Z</time>
      </trkpt>
      <trkpt lat="38.9368" lon="40.63385">
        <ele>1165.11746</ele>
        <time>2021-12-12T10:37:46.999Z</time>
      </trkpt>
      <trkpt lat="38.93536" lon="40.63132">
        <ele>1159.264374</ele>
        <time>2021-12-12T10:38:34.009Z</time>
      </trkpt>
      <trkpt lat="38.93359" lon="40.62875">
        <ele>1147.094176</ele>
        <time>2021-12-12T10:39:01.024Z</time>
      </trkpt>
      <trkpt lat="38.93169" lon="40.62627">
        <ele>1143.034132</ele>
        <time>2021-12-12T10:39:37.055Z</time>
      </trkpt>
      <trkpt lat="38.93046" lon="40.6233">
        <ele>1145.245825</ele>
        <time>2021-12-12T10:40:36.034Z</time>
      </trkpt>
      <trkpt lat="38.92902" lon="40.62056">
        <ele>1151.256076</ele>
        <time>2021-12-12T10:41:55.046Z</time>
      </trkpt>
      <trkpt lat="38.92736" lon="40.61856">
        <ele>1156.749864</ele>
        <time>2021-12-12T10:43:31.013Z</time>
      </trkpt>
      <trkpt lat="38.92538" lon="40.61668">
        <ele>1151.480014</ele>
        <time>2021-12-12T10:44:23.024Z</time>
      </trkpt>
      <trkpt lat="38.92353" lon="40.61401">
        <ele>1134.426516</ele>
        <time>2021-12-12T10:44:57.035Z</time>
      </trkpt>
      <trkpt lat="38.92201" lon="40.61148">
        <ele>1120.467923</ele>
        <time>2021-12-12T10:45:20.007Z</time>
      </trkpt>
      <trkpt lat="38.92088" lon="40.60907">
        <ele>1112.611872</ele>
        <time>2021-12-12T10:45:42.015Z</time>
      </trkpt>
      <trkpt lat="38.91977" lon="40.60671">
        <ele>1107.457768</ele>
        <time>2021-12-12T10:46:04.054Z</time>
      </trkpt>
      <trkpt lat="38.91848" lon="40.60393">
        <ele>1099.478109</ele>
        <time>2021-12-12T10:46:31.997Z</time>
      </trkpt>
      <trkpt lat="38.91676" lon="40.60088">
        <ele>1091.156619</ele>
        <time>2021-12-12T10:47:19.054Z</time>
      </trkpt>
      <trkpt lat="38.91465" lon="40.59874">
        <ele>1085.610827</ele>
        <time>2021-12-12T10:50:05.017Z</time>
      </trkpt>
      <trkpt lat="38.91334" lon="40.59608">
        <ele>1083.022933</ele>
        <time>2021-12-12T10:51:03.021Z</time>
      </trkpt>
      <trkpt lat="38.91328" lon="40.59326">
        <ele>1079.471084</ele>
        <time>2021-12-12T10:51:48.024Z</time>
      </trkpt>
      <trkpt lat="38.91279" lon="40.59035">
        <ele>1077.759816</ele>
        <time>2021-12-12T10:52:32.003Z</time>
      </trkpt>
      <trkpt lat="38.91221" lon="40.5875">
        <ele>1078.173684</ele>
        <time>2021-12-12T10:53:20.027Z</time>
      </trkpt>
      <trkpt lat="38.91161" lon="40.58463">
        <ele>1080.997891</ele>
        <time>2021-12-12T10:54:11.016Z</time>
      </trkpt>
      <trkpt lat="38.91102" lon="40.5818">
        <ele>1080.930256</ele>
        <time>2021-12-12T10:55:01.040Z</time>
      </trkpt>
      <trkpt lat="38.91043" lon="40.57903">
        <ele>1080.888717</ele>
        <time>2021-12-12T10:55:46.033Z</time>
      </trkpt>
      <trkpt lat="38.90978" lon="40.57606">
        <ele>1080.782058</ele>
        <time>2021-12-12T10:56:33.023Z</time>
      </trkpt>
      <trkpt lat="38.90921" lon="40.573">
        <ele>1086.615555</ele>
        <time>2021-12-12T10:57:39.029Z</time>
      </trkpt>
      <trkpt lat="38.90864" lon="40.56988">
        <ele>1090.189478</ele>
        <time>2021-12-12T10:58:45.021Z</time>
      </trkpt>
      <trkpt lat="38.90843" lon="40.56658">
        <ele>1090.140786</ele>
        <time>2021-12-12T11:01:57.018Z</time>
      </trkpt>
      <trkpt lat="38.90822" lon="40.56369">
        <ele>1089.093516</ele>
        <time>2021-12-12T11:02:41.006Z</time>
      </trkpt>
      <trkpt lat="38.90806" lon="40.56058">
        <ele>1087.778647</ele>
        <time>2021-12-12T11:03:25.020Z</time>
      </trkpt>
      <trkpt lat="38.90783" lon="40.55735">
        <ele>1082.312335</ele>
        <time>2021-12-12T11:04:35.020Z</time>
      </trkpt>
      <trkpt lat="38.90749" lon="40.55403">
        <ele>1079.451951</ele>
        <time>2021-12-12T11:05:19.022Z</time>
      </trkpt>
      <trkpt lat="38.90723" lon="40.55096">
        <ele>1075.825816</ele>
        <time>2021-12-12T11:06:03.057Z</time>
      </trkpt>
      <trkpt lat="38.90695" lon="40.54785">
        <ele>1078.819693</ele>
        <time>2021-12-12T11:06:57.013Z</time>
      </trkpt>
      <trkpt lat="38.90673" lon="40.54467">
        <ele>1078.81209</ele>
        <time>2021-12-12T11:08:09.025Z</time>
      </trkpt>
      <trkpt lat="38.90642" lon="40.54148">
        <ele>1078.156148</ele>
        <time>2021-12-12T11:09:06.031Z</time>
      </trkpt>
      <trkpt lat="38.90614" lon="40.5384">
        <ele>1081.210052</ele>
        <time>2021-12-12T11:10:05.011Z</time>
      </trkpt>
      <trkpt lat="38.90587" lon="40.53542">
        <ele>1086.398122</ele>
        <time>2021-12-12T11:11:18.043Z</time>
      </trkpt>
      <trkpt lat="38.90545" lon="40.53254">
        <ele>1087.523496</ele>
        <time>2021-12-12T11:12:23.014Z</time>
      </trkpt>
      <trkpt lat="38.90371" lon="40.52944">
        <ele>1078.37732</ele>
        <time>2021-12-12T11:13:10.047Z</time>
      </trkpt>
      <trkpt lat="38.90186" lon="40.52687">
        <ele>1080.616742</ele>
        <time>2021-12-12T11:14:08.064Z</time>
      </trkpt>
      <trkpt lat="38.90009" lon="40.52616">
        <ele>1084.023258</ele>
        <time>2021-12-12T11:15:46.007Z</time>
      </trkpt>
      <trkpt lat="38.89791" lon="40.52752">
        <ele>1087.019022</ele>
        <time>2021-12-12T11:16:53.021Z</time>
      </trkpt>
      <trkpt lat="38.89556" lon="40.52882">
        <ele>1085.260681</ele>
        <time>2021-12-12T11:17:50.035Z</time>
      </trkpt>
      <trkpt lat="38.89331" lon="40.52964">
        <ele>1086.211411</ele>
        <time>2021-12-12T11:18:44.026Z</time>
      </trkpt>
      <trkpt lat="38.8922" lon="40.52744">
        <ele>1093.102262</ele>
        <time>2021-12-12T11:20:04.032Z</time>
      </trkpt>
      <trkpt lat="38.89118" lon="40.52478">
        <ele>1101.028201</ele>
        <time>2021-12-12T11:21:32.049Z</time>
      </trkpt>
      <trkpt lat="38.89027" lon="40.52202">
        <ele>1109.975205</ele>
        <time>2021-12-12T11:22:55.080Z</time>
      </trkpt>
      <trkpt lat="38.88961" lon="40.51919">
        <ele>1122.912269</ele>
        <time>2021-12-12T11:24:22.025Z</time>
      </trkpt>
      <trkpt lat="38.88901" lon="40.51636">
        <ele>1129.669242</ele>
        <time>2021-12-12T11:25:45.033Z</time>
      </trkpt>
      <trkpt lat="38.8882" lon="40.51352">
        <ele>1127.333992</ele>
        <time>2021-12-12T11:27:18.035Z</time>
      </trkpt>
      <trkpt lat="38.88658" lon="40.51285">
        <ele>1141.756101</ele>
        <time>2021-12-12T11:28:52.036Z</time>
      </trkpt>
      <trkpt lat="38.88486" lon="40.51204">
        <ele>1149.192812</ele>
        <time>2021-12-12T11:30:26.023Z</time>
      </trkpt>
      <trkpt lat="38.88566" lon="40.51108">
        <ele>1149.165554</ele>
        <time>2021-12-12T11:39:34.025Z</time>
      </trkpt>
      <trkpt lat="38.88517" lon="40.50829">
        <ele>1153.406349</ele>
        <time>2021-12-12T11:41:19.020Z</time>
      </trkpt>
      <trkpt lat="38.88493" lon="40.50559">
        <ele>1167.64547</ele>
        <time>2021-12-12T11:44:13.024Z</time>
      </trkpt>
      <trkpt lat="38.88547" lon="40.50259">
        <ele>1183.046643</ele>
        <time>2021-12-12T11:45:52.023Z</time>
      </trkpt>
      <trkpt lat="38.88449" lon="40.50029">
        <ele>1177.265318</ele>
        <time>2021-12-12T11:47:04.020Z</time>
      </trkpt>
      <trkpt lat="38.8838" lon="40.49923">
        <ele>1177.265318</ele>
        <time>2021-12-12T11:48:59.488Z</time>
      </trkpt>
    </trkseg>
  </trk>
</gpx>